KWVI/WVI METAR and TAF weather

Enter ICAO airport designator
Station Type Date Time Source
KWVI METAR 2020/01/21 14:53 UTC NOAA

KWVI 211453Z AUTO 26003KT 10SM SCT085 OVC110 09/08 A3015 RMK AO2 RAB25E35 SLP208 P0000 60000 T00890083 53007


Station Type Date Time Source
KWVI Decoded METAR 2020/01/21 14:53 UTC NOAA

WATSONVILLE MUNICIPAL AIRPORT , CA, United States (KWVI) 36-56N 121-47W 43M
Jan 21, 2020 - 09:53 AM EST / 2020.01.21 1453 UTC
Wind: from the W (260 degrees) at 3 MPH (3 KT):0
Visibility: 10 mile(s):0
Sky conditions: overcast
Precipitation last hour: A trace
Temperature: 48.0 F (8.9 C)
Dew Point: 46.9 F (8.3 C)
Relative Humidity: 96%
Pressure (altimeter): 30.15 in. Hg (1020 hPa)
Pressure tendency: 0.02 inches (0.7 hPa) higher than three hours ago
ob: KWVI 211453Z AUTO 26003KT 10SM SCT085 OVC110 09/08 A3015 RMK AO2 RAB25E35 SLP208 P0000 60000 T00890083 53007
cycle: 15

Station Type Date Time Source
KWVI TAF UTC NOAA

Error!

Example: see airport list